sensor_id;sensor_type;location;lat;lon;timestamp;temperature;humidity
41469;DHT22;27206;47.032;15.484;2022-09-30T00:00:18;11.10;99.90
41469;DHT22;27206;47.032;15.484;2022-09-30T00:02:44;11.10;99.90
41469;DHT22;27206;47.032;15.484;2022-09-30T00:05:10;11.10;99.90
41469;DHT22;27206;47.032;15.484;2022-09-30T00:07:35;11.10;99.90
41469;DHT22;27206;47.032;15.484;2022-09-30T00:10:01;11.10;99.90
41469;DHT22;27206;47.032;15.484;2022-09-30T00:12:27;11.10;99.90
41469;DHT22;27206;47.032;15.484;2022-09-30T00:14:53;11.00;99.90
41469;DHT22;27206;47.032;15.484;2022-09-30T00:17:18;11.10;99.90
41469;DHT22;27206;47.032;15.484;2022-09-30T00:19:44;11.00;99.90
41469;DHT22;27206;47.032;15.484;2022-09-30T00:22:11;11.00;99.90
41469;DHT22;27206;47.032;15.484;2022-09-30T00:24:36;11.00;99.90
41469;DHT22;27206;47.032;15.484;2022-09-30T00:27:02;11.00;99.90
41469;DHT22;27206;47.032;15.484;2022-09-30T00:29:27;11.00;99.90
41469;DHT22;27206;47.032;15.484;2022-09-30T00:31:53;11.00;99.90
41469;DHT22;27206;47.032;15.484;2022-09-30T00:34:18;11.00;99.90
41469;DHT22;27206;47.032;15.484;2022-09-30T00:36:48;11.00;99.90
41469;DHT22;27206;47.032;15.484;2022-09-30T00:39:15;11.00;99.90
41469;DHT22;27206;47.032;15.484;2022-09-30T00:41:41;11.00;99.90
41469;DHT22;27206;47.032;15.484;2022-09-30T00:46:51;10.90;99.90
41469;DHT22;27206;47.032;15.484;2022-09-30T00:49:19;11.00;99.90
41469;DHT22;27206;47.032;15.484;2022-09-30T00:51:47;11.00;99.90
41469;DHT22;27206;47.032;15.484;2022-09-30T00:54:18;11.00;99.90
41469;DHT22;27206;47.032;15.484;2022-09-30T00:56:47;11.00;99.90
41469;DHT22;27206;47.032;15.484;2022-09-30T00:59:18;11.00;99.90
41469;DHT22;27206;47.032;15.484;2022-09-30T01:01:44;10.90;99.90
41469;DHT22;27206;47.032;15.484;2022-09-30T01:04:11;11.00;99.90
41469;DHT22;27206;47.032;15.484;2022-09-30T01:06:37;11.10;99.90
41469;DHT22;27206;47.032;15.484;2022-09-30T01:09:03;11.10;92.30
41469;DHT22;27206;47.032;15.484;2022-09-30T01:11:29;11.00;99.90
41469;DHT22;27206;47.032;15.484;2022-09-30T01:13:58;11.00;99.90
41469;DHT22;27206;47.032;15.484;2022-09-30T01:18:57;11.00;99.90
41469;DHT22;27206;47.032;15.484;2022-09-30T01:26:56;11.00;99.90
41469;DHT22;27206;47.032;15.484;2022-09-30T01:34:51;11.00;99.90
41469;DHT22;27206;47.032;15.484;2022-09-30T01:37:22;11.00;99.90
41469;DHT22;27206;47.032;15.484;2022-09-30T01:39:50;11.00;99.90
41469;DHT22;27206;47.032;15.484;2022-09-30T01:44:57;11.00;99.90
41469;DHT22;27206;47.032;15.484;2022-09-30T01:50:03;11.00;99.90
41469;DHT22;27206;47.032;15.484;2022-09-30T01:52:36;11.00;99.90
41469;DHT22;27206;47.032;15.484;2022-09-30T01:55:07;11.00;99.90
41469;DHT22;27206;47.032;15.484;2022-09-30T02:00:05;11.00;99.90
41469;DHT22;27206;47.032;15.484;2022-09-30T02:02:33;11.00;99.90
41469;DHT22;27206;47.032;15.484;2022-09-30T02:07:53;11.10;99.90
41469;DHT22;27206;47.032;15.484;2022-09-30T02:12:47;11.00;99.90
41469;DHT22;27206;47.032;15.484;2022-09-30T02:15:16;11.00;99.90
41469;DHT22;27206;47.032;15.484;2022-09-30T02:17:44;11.10;99.90
41469;DHT22;27206;47.032;15.484;2022-09-30T02:20:15;11.00;99.90
41469;DHT22;27206;47.032;15.484;2022-09-30T02:22:42;11.10;99.90
41469;DHT22;27206;47.032;15.484;2022-09-30T02:25:11;11.20;99.90
41469;DHT22;27206;47.032;15.484;2022-09-30T02:27:43;11.10;99.90
41469;DHT22;27206;47.032;15.484;2022-09-30T02:30:10;11.10;99.90
41469;DHT22;27206;47.032;15.484;2022-09-30T02:32:38;11.20;99.90
41469;DHT22;27206;47.032;15.484;2022-09-30T02:35:06;11.20;99.90
41469;DHT22;27206;47.032;15.484;2022-09-30T02:37:36;11.20;99.90
41469;DHT22;27206;47.032;15.484;2022-09-30T02:40:11;11.20;99.90
41469;DHT22;27206;47.032;15.484;2022-09-30T02:42:38;11.20;99.90
41469;DHT22;27206;47.032;15.484;2022-09-30T02:45:06;11.20;99.90
41469;DHT22;27206;47.032;15.484;2022-09-30T02:58:12;11.20;99.90
41469;DHT22;27206;47.032;15.484;2022-09-30T03:00:39;11.20;99.90
41469;DHT22;27206;47.032;15.484;2022-09-30T03:03:16;11.30;99.90
41469;DHT22;27206;47.032;15.484;2022-09-30T03:05:43;11.20;99.90
41469;DHT22;27206;47.032;15.484;2022-09-30T03:08:09;11.20;99.90
41469;DHT22;27206;47.032;15.484;2022-09-30T03:10:34;11.20;99.90
41469;DHT22;27206;47.032;15.484;2022-09-30T03:15:40;11.20;99.90
41469;DHT22;27206;47.032;15.484;2022-09-30T03:20:49;11.20;99.90
41469;DHT22;27206;47.032;15.484;2022-09-30T03:30:49;11.10;99.90
41469;DHT22;27206;47.032;15.484;2022-09-30T03:33:22;11.20;99.90
41469;DHT22;27206;47.032;15.484;2022-09-30T03:35:57;11.10;99.90
41469;DHT22;27206;47.032;15.484;2022-09-30T03:41:15;11.10;99.90
41469;DHT22;27206;47.032;15.484;2022-09-30T03:43:49;11.10;99.90
41469;DHT22;27206;47.032;15.484;2022-09-30T03:48:54;11.20;96.00
41469;DHT22;27206;47.032;15.484;2022-09-30T03:51:21;11.20;95.70
41469;DHT22;27206;47.032;15.484;2022-09-30T03:53:49;11.20;92.20
41469;DHT22;27206;47.032;15.484;2022-09-30T03:56:22;11.30;84.00
41469;DHT22;27206;47.032;15.484;2022-09-30T03:58:48;11.30;70.70
41469;DHT22;27206;47.032;15.484;2022-09-30T04:01:16;11.30;76.90
41469;DHT22;27206;47.032;15.484;2022-09-30T04:03:44;11.20;91.90
41469;DHT22;27206;47.032;15.484;2022-09-30T04:06:11;11.10;99.90
41469;DHT22;27206;47.032;15.484;2022-09-30T04:08:37;11.20;99.90
41469;DHT22;27206;47.032;15.484;2022-09-30T04:11:02;11.20;99.90
41469;DHT22;27206;47.032;15.484;2022-09-30T04:13:28;11.30;99.90
41469;DHT22;27206;47.032;15.484;2022-09-30T04:15:54;11.30;89.50
41469;DHT22;27206;47.032;15.484;2022-09-30T04:18:19;11.30;94.00
41469;DHT22;27206;47.032;15.484;2022-09-30T04:20:45;11.30;94.20
41469;DHT22;27206;47.032;15.484;2022-09-30T04:23:10;11.30;86.80
41469;DHT22;27206;47.032;15.484;2022-09-30T04:25:36;11.30;59.90
41469;DHT22;27206;47.032;15.484;2022-09-30T04:28:01;11.30;50.80
41469;DHT22;27206;47.032;15.484;2022-09-30T04:30:27;11.40;46.20
41469;DHT22;27206;47.032;15.484;2022-09-30T04:32:52;11.30;55.00
41469;DHT22;27206;47.032;15.484;2022-09-30T04:35:18;11.20;59.50
41469;DHT22;27206;47.032;15.484;2022-09-30T04:37:44;11.20;92.60
41469;DHT22;27206;47.032;15.484;2022-09-30T04:40:11;11.20;99.50
41469;DHT22;27206;47.032;15.484;2022-09-30T04:42:38;11.10;97.40
41469;DHT22;27206;47.032;15.484;2022-09-30T04:45:04;11.20;99.90
41469;DHT22;27206;47.032;15.484;2022-09-30T04:47:29;11.20;97.10
41469;DHT22;27206;47.032;15.484;2022-09-30T04:49:55;11.10;86.20
41469;DHT22;27206;47.032;15.484;2022-09-30T04:52:21;11.20;96.00
41469;DHT22;27206;47.032;15.484;2022-09-30T04:54:47;11.20;94.40
41469;DHT22;27206;47.032;15.484;2022-09-30T04:57:13;11.30;90.00
41469;DHT22;27206;47.032;15.484;2022-09-30T04:59:38;11.20;81.70
41469;DHT22;27206;47.032;15.484;2022-09-30T05:02:04;11.20;86.90
41469;DHT22;27206;47.032;15.484;2022-09-30T05:04:30;11.20;90.20
41469;DHT22;27206;47.032;15.484;2022-09-30T05:06:58;11.20;93.70
41469;DHT22;27206;47.032;15.484;2022-09-30T05:09:24;11.20;96.70
41469;DHT22;27206;47.032;15.484;2022-09-30T05:11:49;11.20;98.30
41469;DHT22;27206;47.032;15.484;2022-09-30T05:14:16;11.10;99.90
41469;DHT22;27206;47.032;15.484;2022-09-30T05:16:41;11.10;99.90
41469;DHT22;27206;47.032;15.484;2022-09-30T05:19:07;11.10;99.90
41469;DHT22;27206;47.032;15.484;2022-09-30T05:21:33;11.00;99.90
41469;DHT22;27206;47.032;15.484;2022-09-30T05:24:00;11.00;99.90
41469;DHT22;27206;47.032;15.484;2022-09-30T05:26:25;11.00;99.90
41469;DHT22;27206;47.032;15.484;2022-09-30T05:28:51;11.00;99.90
41469;DHT22;27206;47.032;15.484;2022-09-30T05:31:16;11.00;99.90
41469;DHT22;27206;47.032;15.484;2022-09-30T05:33:43;11.00;99.90
41469;DHT22;27206;47.032;15.484;2022-09-30T05:36:09;11.10;99.90
41469;DHT22;27206;47.032;15.484;2022-09-30T05:38:36;11.00;99.90
41469;DHT22;27206;47.032;15.484;2022-09-30T05:41:08;11.10;99.90
41469;DHT22;27206;47.032;15.484;2022-09-30T05:43:36;11.20;99.90
41469;DHT22;27206;47.032;15.484;2022-09-30T05:46:01;11.20;99.90
41469;DHT22;27206;47.032;15.484;2022-09-30T05:48:27;11.10;99.90
41469;DHT22;27206;47.032;15.484;2022-09-30T05:50:56;11.10;99.90
41469;DHT22;27206;47.032;15.484;2022-09-30T05:53:21;11.20;99.90
41469;DHT22;27206;47.032;15.484;2022-09-30T05:55:48;11.10;99.90
41469;DHT22;27206;47.032;15.484;2022-09-30T05:58:15;11.20;99.90
41469;DHT22;27206;47.032;15.484;2022-09-30T06:00:41;11.20;99.90
41469;DHT22;27206;47.032;15.484;2022-09-30T06:03:07;11.30;99.90
41469;DHT22;27206;47.032;15.484;2022-09-30T06:05:32;11.20;98.40
41469;DHT22;27206;47.032;15.484;2022-09-30T06:07:58;11.30;91.90
41469;DHT22;27206;47.032;15.484;2022-09-30T06:10:23;11.30;97.70
41469;DHT22;27206;47.032;15.484;2022-09-30T06:12:49;11.40;98.70
41469;DHT22;27206;47.032;15.484;2022-09-30T06:15:14;11.50;99.90
41469;DHT22;27206;47.032;15.484;2022-09-30T06:17:40;11.60;99.90
41469;DHT22;27206;47.032;15.484;2022-09-30T06:20:07;11.60;99.90
41469;DHT22;27206;47.032;15.484;2022-09-30T06:22:33;11.60;99.90
41469;DHT22;27206;47.032;15.484;2022-09-30T06:25:05;11.60;95.10
41469;DHT22;27206;47.032;15.484;2022-09-30T06:27:32;11.50;64.80
41469;DHT22;27206;47.032;15.484;2022-09-30T06:29:57;11.50;48.10
41469;DHT22;27206;47.032;15.484;2022-09-30T06:32:23;11.50;59.40
41469;DHT22;27206;47.032;15.484;2022-09-30T06:34:51;11.50;61.90
41469;DHT22;27206;47.032;15.484;2022-09-30T06:37:16;11.50;54.90
41469;DHT22;27206;47.032;15.484;2022-09-30T06:39:43;11.50;46.10
41469;DHT22;27206;47.032;15.484;2022-09-30T06:42:08;11.50;54.40
41469;DHT22;27206;47.032;15.484;2022-09-30T06:44:36;11.60;53.60
41469;DHT22;27206;47.032;15.484;2022-09-30T06:47:01;11.50;36.30
41469;DHT22;27206;47.032;15.484;2022-09-30T06:49:27;11.50;38.40
41469;DHT22;27206;47.032;15.484;2022-09-30T06:51:52;11.50;41.20
41469;DHT22;27206;47.032;15.484;2022-09-30T06:54:18;11.50;20.40
41469;DHT22;27206;47.032;15.484;2022-09-30T06:56:48;11.50;17.00
41469;DHT22;27206;47.032;15.484;2022-09-30T06:59:13;11.50;21.30
41469;DHT22;27206;47.032;15.484;2022-09-30T07:01:41;11.40;25.80
41469;DHT22;27206;47.032;15.484;2022-09-30T07:04:09;11.40;28.20
41469;DHT22;27206;47.032;15.484;2022-09-30T07:06:35;11.50;23.80
41469;DHT22;27206;47.032;15.484;2022-09-30T07:09:03;11.50;24.10
41469;DHT22;27206;47.032;15.484;2022-09-30T07:11:29;11.50;25.80
41469;DHT22;27206;47.032;15.484;2022-09-30T07:13:54;11.70;26.70
41469;DHT22;27206;47.032;15.484;2022-09-30T07:16:20;11.70;17.50
41469;DHT22;27206;47.032;15.484;2022-09-30T07:18:45;11.60;13.40
41469;DHT22;27206;47.032;15.484;2022-09-30T07:21:12;11.70;17.40
41469;DHT22;27206;47.032;15.484;2022-09-30T07:23:40;11.70;1.00
41469;DHT22;27206;47.032;15.484;2022-09-30T07:26:15;11.70;2.80
41469;DHT22;27206;47.032;15.484;2022-09-30T07:28:41;11.70;4.60
41469;DHT22;27206;47.032;15.484;2022-09-30T07:31:09;11.70;1.00
41469;DHT22;27206;47.032;15.484;2022-09-30T07:33:36;11.80;2.50
41469;DHT22;27206;47.032;15.484;2022-09-30T07:36:03;11.90;2.10
41469;DHT22;27206;47.032;15.484;2022-09-30T07:38:32;12.00;1.00
41469;DHT22;27206;47.032;15.484;2022-09-30T07:41:02;12.20;1.00
41469;DHT22;27206;47.032;15.484;2022-09-30T07:43:28;12.20;1.00
41469;DHT22;27206;47.032;15.484;2022-09-30T07:46:03;12.40;1.00
41469;DHT22;27206;47.032;15.484;2022-09-30T07:48:28;12.40;1.00
41469;DHT22;27206;47.032;15.484;2022-09-30T07:53:40;12.40;1.00
41469;DHT22;27206;47.032;15.484;2022-09-30T07:56:07;12.50;1.00
41469;DHT22;27206;47.032;15.484;2022-09-30T07:58:33;12.60;1.00
41469;DHT22;27206;47.032;15.484;2022-09-30T08:00:58;12.50;1.00
41469;DHT22;27206;47.032;15.484;2022-09-30T08:03:24;12.50;1.00
41469;DHT22;27206;47.032;15.484;2022-09-30T08:05:49;12.60;1.00
41469;DHT22;27206;47.032;15.484;2022-09-30T08:08:15;12.70;1.00
41469;DHT22;27206;47.032;15.484;2022-09-30T08:10:41;13.00;1.00
41469;DHT22;27206;47.032;15.484;2022-09-30T08:13:07;13.20;1.00
41469;DHT22;27206;47.032;15.484;2022-09-30T08:15:32;13.20;1.00
41469;DHT22;27206;47.032;15.484;2022-09-30T08:17:58;13.30;1.00
41469;DHT22;27206;47.032;15.484;2022-09-30T08:20:23;13.30;1.00
41469;DHT22;27206;47.032;15.484;2022-09-30T08:22:53;13.60;1.00
41469;DHT22;27206;47.032;15.484;2022-09-30T08:25:22;13.50;1.00
41469;DHT22;27206;47.032;15.484;2022-09-30T08:27:48;13.50;1.00
41469;DHT22;27206;47.032;15.484;2022-09-30T08:30:14;13.50;1.00
41469;DHT22;27206;47.032;15.484;2022-09-30T08:32:40;13.60;1.00
41469;DHT22;27206;47.032;15.484;2022-09-30T08:35:05;13.60;1.00
41469;DHT22;27206;47.032;15.484;2022-09-30T08:37:31;13.60;1.00
41469;DHT22;27206;47.032;15.484;2022-09-30T08:39:56;13.80;1.00
41469;DHT22;27206;47.032;15.484;2022-09-30T08:48:06;14.20;1.00
41469;DHT22;27206;47.032;15.484;2022-09-30T08:53:17;14.90;1.00
41469;DHT22;27206;47.032;15.484;2022-09-30T08:55:47;15.10;1.00
41469;DHT22;27206;47.032;15.484;2022-09-30T08:58:15;15.00;1.00
41469;DHT22;27206;47.032;15.484;2022-09-30T09:00:45;15.00;1.00
41469;DHT22;27206;47.032;15.484;2022-09-30T09:03:12;14.90;1.00
41469;DHT22;27206;47.032;15.484;2022-09-30T09:05:45;14.70;1.00
41469;DHT22;27206;47.032;15.484;2022-09-30T09:10:46;15.00;1.00
41469;DHT22;27206;47.032;15.484;2022-09-30T09:13:25;15.30;1.00
41469;DHT22;27206;47.032;15.484;2022-09-30T09:18:24;15.80;1.00
41469;DHT22;27206;47.032;15.484;2022-09-30T09:20:57;15.90;1.00
41469;DHT22;27206;47.032;15.484;2022-09-30T09:23:24;16.10;1.00
41469;DHT22;27206;47.032;15.484;2022-09-30T09:25:50;16.70;1.00
41469;DHT22;27206;47.032;15.484;2022-09-30T09:30:50;17.30;1.00
41469;DHT22;27206;47.032;15.484;2022-09-30T09:35:51;17.60;1.00
41469;DHT22;27206;47.032;15.484;2022-09-30T09:38:55;17.60;1.00
41469;DHT22;27206;47.032;15.484;2022-09-30T09:46:33;17.00;1.00
41469;DHT22;27206;47.032;15.484;2022-09-30T09:54:30;16.60;1.00
41469;DHT22;27206;47.032;15.484;2022-09-30T09:57:06;17.00;1.00
41469;DHT22;27206;47.032;15.484;2022-09-30T09:59:34;17.10;1.00
41469;DHT22;27206;47.032;15.484;2022-09-30T10:01:59;17.00;1.00
41469;DHT22;27206;47.032;15.484;2022-09-30T10:04:26;17.20;1.00
41469;DHT22;27206;47.032;15.484;2022-09-30T10:09:43;17.60;1.00
41469;DHT22;27206;47.032;15.484;2022-09-30T10:14:46;16.70;1.00
41469;DHT22;27206;47.032;15.484;2022-09-30T10:17:19;16.70;1.00
41469;DHT22;27206;47.032;15.484;2022-09-30T10:19:49;16.60;1.00
41469;DHT22;27206;47.032;15.484;2022-09-30T10:22:16;16.60;1.00
41469;DHT22;27206;47.032;15.484;2022-09-30T10:24:42;16.50;1.00
41469;DHT22;27206;47.032;15.484;2022-09-30T10:29:52;16.70;1.00
41469;DHT22;27206;47.032;15.484;2022-09-30T10:32:18;16.60;1.00
41469;DHT22;27206;47.032;15.484;2022-09-30T10:34:44;17.00;1.00
41469;DHT22;27206;47.032;15.484;2022-09-30T10:37:13;17.90;1.00
41469;DHT22;27206;47.032;15.484;2022-09-30T10:39:40;17.90;1.00
41469;DHT22;27206;47.032;15.484;2022-09-30T10:42:07;17.90;1.00
41469;DHT22;27206;47.032;15.484;2022-09-30T10:44:36;18.00;1.00
41469;DHT22;27206;47.032;15.484;2022-09-30T10:47:05;18.80;1.00
41469;DHT22;27206;47.032;15.484;2022-09-30T10:49:35;19.90;1.00
41469;DHT22;27206;47.032;15.484;2022-09-30T10:52:01;19.30;1.00
41469;DHT22;27206;47.032;15.484;2022-09-30T10:57:05;18.20;1.00
41469;DHT22;27206;47.032;15.484;2022-09-30T10:59:37;18.50;1.00
41469;DHT22;27206;47.032;15.484;2022-09-30T11:02:15;18.70;1.00
41469;DHT22;27206;47.032;15.484;2022-09-30T11:04:45;20.00;1.00
41469;DHT22;27206;47.032;15.484;2022-09-30T11:12:40;20.60;1.00
41469;DHT22;27206;47.032;15.484;2022-09-30T11:15:24;20.90;99.90
41469;DHT22;27206;47.032;15.484;2022-09-30T11:18:15;20.10;99.90
41469;DHT22;27206;47.032;15.484;2022-09-30T11:20:46;19.30;1.00
41469;DHT22;27206;47.032;15.484;2022-09-30T11:23:27;18.70;1.00
41469;DHT22;27206;47.032;15.484;2022-09-30T11:28:34;18.60;1.00
41469;DHT22;27206;47.032;15.484;2022-09-30T11:44:00;18.90;1.00
41469;DHT22;27206;47.032;15.484;2022-09-30T11:51:46;20.70;1.00
41469;DHT22;27206;47.032;15.484;2022-09-30T11:56:46;22.00;99.90
41469;DHT22;27206;47.032;15.484;2022-09-30T11:59:21;22.00;99.90
41469;DHT22;27206;47.032;15.484;2022-09-30T12:01:49;22.70;99.90
41469;DHT22;27206;47.032;15.484;2022-09-30T12:04:18;22.30;99.90
41469;DHT22;27206;47.032;15.484;2022-09-30T12:06:53;20.80;99.90
41469;DHT22;27206;47.032;15.484;2022-09-30T12:11:47;20.20;99.90
41469;DHT22;27206;47.032;15.484;2022-09-30T12:14:15;20.00;99.90
41469;DHT22;27206;47.032;15.484;2022-09-30T12:16:43;19.70;99.90
41469;DHT22;27206;47.032;15.484;2022-09-30T12:19:12;19.80;99.90
41469;DHT22;27206;47.032;15.484;2022-09-30T12:22:25;19.80;99.90
41469;DHT22;27206;47.032;15.484;2022-09-30T12:24:29;19.70;99.90
41469;DHT22;27206;47.032;15.484;2022-09-30T12:26:57;19.90;99.90
41469;DHT22;27206;47.032;15.484;2022-09-30T12:29:27;20.00;99.90
41469;DHT22;27206;47.032;15.484;2022-09-30T12:32:16;20.70;99.90
41469;DHT22;27206;47.032;15.484;2022-09-30T12:47:58;20.70;99.90
41469;DHT22;27206;47.032;15.484;2022-09-30T12:50:27;20.50;99.90
41469;DHT22;27206;47.032;15.484;2022-09-30T12:52:54;20.50;99.90
41469;DHT22;27206;47.032;15.484;2022-09-30T12:57:50;19.50;1.00
41469;DHT22;27206;47.032;15.484;2022-09-30T13:00:18;19.10;1.00
41469;DHT22;27206;47.032;15.484;2022-09-30T13:02:48;18.60;1.00
41469;DHT22;27206;47.032;15.484;2022-09-30T13:08:43;17.80;1.00
41469;DHT22;27206;47.032;15.484;2022-09-30T13:10:43;18.10;1.00
41469;DHT22;27206;47.032;15.484;2022-09-30T13:20:51;18.60;1.00
41469;DHT22;27206;47.032;15.484;2022-09-30T13:28:50;17.70;1.00
41469;DHT22;27206;47.032;15.484;2022-09-30T13:31:17;17.60;1.00
41469;DHT22;27206;47.032;15.484;2022-09-30T13:34:01;17.60;1.00
41469;DHT22;27206;47.032;15.484;2022-09-30T13:36:29;17.70;1.00
41469;DHT22;27206;47.032;15.484;2022-09-30T13:41:39;17.50;1.00
41469;DHT22;27206;47.032;15.484;2022-09-30T13:44:18;17.80;1.00
41469;DHT22;27206;47.032;15.484;2022-09-30T13:46:50;17.70;1.00
41469;DHT22;27206;47.032;15.484;2022-09-30T13:49:20;17.60;1.00
41469;DHT22;27206;47.032;15.484;2022-09-30T13:51:47;17.50;1.00
41469;DHT22;27206;47.032;15.484;2022-09-30T13:54:22;17.60;1.00
41469;DHT22;27206;47.032;15.484;2022-09-30T13:56:50;17.70;1.00
41469;DHT22;27206;47.032;15.484;2022-09-30T14:07:06;17.40;1.00
41469;DHT22;27206;47.032;15.484;2022-09-30T14:22:13;17.20;1.00
41469;DHT22;27206;47.032;15.484;2022-09-30T14:24:39;17.20;1.00
41469;DHT22;27206;47.032;15.484;2022-09-30T14:32:30;17.00;1.00
41469;DHT22;27206;47.032;15.484;2022-09-30T14:34:57;16.90;1.00
41469;DHT22;27206;47.032;15.484;2022-09-30T14:37:28;16.70;1.00
41469;DHT22;27206;47.032;15.484;2022-09-30T14:39:54;16.90;1.00
41469;DHT22;27206;47.032;15.484;2022-09-30T14:42:38;17.20;1.00
41469;DHT22;27206;47.032;15.484;2022-09-30T14:45:05;17.10;1.00
41469;DHT22;27206;47.032;15.484;2022-09-30T14:47:43;16.90;1.00
41469;DHT22;27206;47.032;15.484;2022-09-30T14:50:09;16.70;1.00
41469;DHT22;27206;47.032;15.484;2022-09-30T14:52:41;16.50;1.00
41469;DHT22;27206;47.032;15.484;2022-09-30T14:55:18;16.60;1.00
41469;DHT22;27206;47.032;15.484;2022-09-30T14:57:46;16.70;1.00
41469;DHT22;27206;47.032;15.484;2022-09-30T15:00:20;16.50;1.00
41469;DHT22;27206;47.032;15.484;2022-09-30T15:02:47;16.40;1.00
41469;DHT22;27206;47.032;15.484;2022-09-30T15:05:14;16.50;1.00
41469;DHT22;27206;47.032;15.484;2022-09-30T15:07:40;16.30;1.00
41469;DHT22;27206;47.032;15.484;2022-09-30T15:10:13;16.30;1.00
41469;DHT22;27206;47.032;15.484;2022-09-30T15:12:41;16.20;1.00
41469;DHT22;27206;47.032;15.484;2022-09-30T15:15:24;16.40;1.00
41469;DHT22;27206;47.032;15.484;2022-09-30T15:17:50;16.40;1.00
41469;DHT22;27206;47.032;15.484;2022-09-30T15:20:37;16.20;1.00
41469;DHT22;27206;47.032;15.484;2022-09-30T15:23:02;16.20;1.00
41469;DHT22;27206;47.032;15.484;2022-09-30T15:25:31;16.20;1.00
41469;DHT22;27206;47.032;15.484;2022-09-30T15:27:57;16.00;1.00
41469;DHT22;27206;47.032;15.484;2022-09-30T15:30:24;16.00;1.00
41469;DHT22;27206;47.032;15.484;2022-09-30T15:33:00;16.00;1.00
41469;DHT22;27206;47.032;15.484;2022-09-30T15:35:26;15.90;1.00
41469;DHT22;27206;47.032;15.484;2022-09-30T15:37:52;16.00;1.00
41469;DHT22;27206;47.032;15.484;2022-09-30T15:40:18;16.00;1.00
41469;DHT22;27206;47.032;15.484;2022-09-30T15:43:07;15.90;1.00
41469;DHT22;27206;47.032;15.484;2022-09-30T15:45:34;15.70;1.00
41469;DHT22;27206;47.032;15.484;2022-09-30T15:48:08;15.80;1.00
41469;DHT22;27206;47.032;15.484;2022-09-30T15:50:55;16.00;1.00
41469;DHT22;27206;47.032;15.484;2022-09-30T15:55:50;15.90;1.00
41469;DHT22;27206;47.032;15.484;2022-09-30T16:00:51;15.90;1.00
41469;DHT22;27206;47.032;15.484;2022-09-30T16:05:46;15.80;1.00
41469;DHT22;27206;47.032;15.484;2022-09-30T16:08:18;15.80;1.00
41469;DHT22;27206;47.032;15.484;2022-09-30T16:10:50;15.70;1.00
41469;DHT22;27206;47.032;15.484;2022-09-30T16:13:18;15.60;1.00
41469;DHT22;27206;47.032;15.484;2022-09-30T16:15:45;15.60;1.00
41469;DHT22;27206;47.032;15.484;2022-09-30T16:18:19;15.60;1.00
41469;DHT22;27206;47.032;15.484;2022-09-30T16:20:59;15.60;1.00
41469;DHT22;27206;47.032;15.484;2022-09-30T16:23:34;15.60;1.00
41469;DHT22;27206;47.032;15.484;2022-09-30T16:28:45;15.40;1.00
41469;DHT22;27206;47.032;15.484;2022-09-30T16:31:11;15.40;1.00
41469;DHT22;27206;47.032;15.484;2022-09-30T16:33:38;15.40;1.00
41469;DHT22;27206;47.032;15.484;2022-09-30T16:36:06;15.30;1.00
41469;DHT22;27206;47.032;15.484;2022-09-30T16:38:32;15.30;1.00
41469;DHT22;27206;47.032;15.484;2022-09-30T16:40:57;15.20;1.00
41469;DHT22;27206;47.032;15.484;2022-09-30T16:43:25;15.20;1.00
41469;DHT22;27206;47.032;15.484;2022-09-30T16:45:51;15.30;1.00
41469;DHT22;27206;47.032;15.484;2022-09-30T16:48:17;15.30;1.00
41469;DHT22;27206;47.032;15.484;2022-09-30T16:50:47;15.20;1.00
41469;DHT22;27206;47.032;15.484;2022-09-30T16:53:13;15.20;1.00
41469;DHT22;27206;47.032;15.484;2022-09-30T16:55:39;15.10;1.00
41469;DHT22;27206;47.032;15.484;2022-09-30T16:58:04;15.10;1.00
41469;DHT22;27206;47.032;15.484;2022-09-30T17:00:30;15.10;1.00
41469;DHT22;27206;47.032;15.484;2022-09-30T17:02:56;15.20;1.00
41469;DHT22;27206;47.032;15.484;2022-09-30T17:05:23;14.90;1.00
41469;DHT22;27206;47.032;15.484;2022-09-30T17:07:50;14.80;1.00
41469;DHT22;27206;47.032;15.484;2022-09-30T17:10:17;14.90;1.00
41469;DHT22;27206;47.032;15.484;2022-09-30T17:12:43;14.80;1.00
41469;DHT22;27206;47.032;15.484;2022-09-30T17:15:08;14.80;1.00
41469;DHT22;27206;47.032;15.484;2022-09-30T17:17:35;14.80;1.00
41469;DHT22;27206;47.032;15.484;2022-09-30T17:20:01;14.80;1.00
41469;DHT22;27206;47.032;15.484;2022-09-30T17:22:26;14.90;1.00
41469;DHT22;27206;47.032;15.484;2022-09-30T17:24:51;14.80;1.00
41469;DHT22;27206;47.032;15.484;2022-09-30T17:27:17;14.70;1.00
41469;DHT22;27206;47.032;15.484;2022-09-30T17:29:42;14.60;1.00
41469;DHT22;27206;47.032;15.484;2022-09-30T17:32:08;14.60;1.00
41469;DHT22;27206;47.032;15.484;2022-09-30T17:34:34;14.60;1.00
41469;DHT22;27206;47.032;15.484;2022-09-30T17:37:00;14.60;1.00
41469;DHT22;27206;47.032;15.484;2022-09-30T17:39:25;14.60;1.00
41469;DHT22;27206;47.032;15.484;2022-09-30T17:41:52;14.50;1.00
41469;DHT22;27206;47.032;15.484;2022-09-30T17:44:36;14.40;1.00
41469;DHT22;27206;47.032;15.484;2022-09-30T17:47:03;14.40;1.00
41469;DHT22;27206;47.032;15.484;2022-09-30T17:49:31;14.40;1.00
41469;DHT22;27206;47.032;15.484;2022-09-30T17:51:57;14.40;1.00
41469;DHT22;27206;47.032;15.484;2022-09-30T17:54:23;14.40;1.00
41469;DHT22;27206;47.032;15.484;2022-09-30T17:56:48;14.40;1.00
41469;DHT22;27206;47.032;15.484;2022-09-30T17:59:14;14.30;1.00
41469;DHT22;27206;47.032;15.484;2022-09-30T18:01:40;14.20;1.00
41469;DHT22;27206;47.032;15.484;2022-09-30T18:04:06;14.20;1.00
41469;DHT22;27206;47.032;15.484;2022-09-30T18:06:31;14.20;1.00
41469;DHT22;27206;47.032;15.484;2022-09-30T18:08:58;14.20;5.80
41469;DHT22;27206;47.032;15.484;2022-09-30T18:11:25;14.20;7.30
41469;DHT22;27206;47.032;15.484;2022-09-30T18:13:52;14.20;1.00
41469;DHT22;27206;47.032;15.484;2022-09-30T18:16:19;14.20;1.00
41469;DHT22;27206;47.032;15.484;2022-09-30T18:18:44;14.20;1.00
41469;DHT22;27206;47.032;15.484;2022-09-30T18:21:10;14.10;4.30
41469;DHT22;27206;47.032;15.484;2022-09-30T18:23:36;14.20;11.70
41469;DHT22;27206;47.032;15.484;2022-09-30T18:26:01;14.20;1.00
41469;DHT22;27206;47.032;15.484;2022-09-30T18:28:27;14.30;1.00
41469;DHT22;27206;47.032;15.484;2022-09-30T18:30:52;14.10;1.00
41469;DHT22;27206;47.032;15.484;2022-09-30T18:33:18;14.00;10.00
41469;DHT22;27206;47.032;15.484;2022-09-30T18:35:45;14.00;21.50
41469;DHT22;27206;47.032;15.484;2022-09-30T18:38:11;14.00;23.40
41469;DHT22;27206;47.032;15.484;2022-09-30T18:40:42;14.00;19.70
41469;DHT22;27206;47.032;15.484;2022-09-30T18:43:08;13.90;12.30
41469;DHT22;27206;47.032;15.484;2022-09-30T18:45:37;13.90;35.70
41469;DHT22;27206;47.032;15.484;2022-09-30T18:48:02;13.80;28.90
41469;DHT22;27206;47.032;15.484;2022-09-30T18:50:29;13.90;38.20